sensor_id;sensor_type;location;lat;lon;timestamp;pressure;altitude;pressure_sealevel;temperature;humidity
36980;BME280;22891;50.562;7.272;2022-08-25T00:02:02;101163.00;;;19.78;100.00
36980;BME280;22891;50.562;7.272;2022-08-25T00:04:29;101159.00;;;19.85;100.00
36980;BME280;22891;50.562;7.272;2022-08-25T00:06:55;101157.00;;;19.70;100.00
36980;BME280;22891;50.562;7.272;2022-08-25T00:09:25;101159.00;;;19.79;100.00
36980;BME280;22891;50.562;7.272;2022-08-25T00:11:52;101163.00;;;19.85;100.00
36980;BME280;22891;50.562;7.272;2022-08-25T00:14:22;101159.00;;;19.72;100.00
36980;BME280;22891;50.562;7.272;2022-08-25T00:16:50;101161.00;;;19.58;100.00
36980;BME280;22891;50.562;7.272;2022-08-25T00:19:20;101148.00;;;19.48;100.00
36980;BME280;22891;50.562;7.272;2022-08-25T00:21:47;101153.00;;;19.52;100.00
36980;BME280;22891;50.562;7.272;2022-08-25T00:24:15;101154.00;;;19.29;100.00
36980;BME280;22891;50.562;7.272;2022-08-25T00:26:44;101150.00;;;19.15;100.00
36980;BME280;22891;50.562;7.272;2022-08-25T00:29:10;101152.00;;;19.10;100.00
36980;BME280;22891;50.562;7.272;2022-08-25T00:31:38;101154.00;;;19.05;100.00
36980;BME280;22891;50.562;7.272;2022-08-25T00:34:11;101148.00;;;19.24;100.00
36980;BME280;22891;50.562;7.272;2022-08-25T00:36:37;101145.00;;;19.25;100.00
36980;BME280;22891;50.562;7.272;2022-08-25T00:39:06;101145.00;;;19.32;100.00
36980;BME280;22891;50.562;7.272;2022-08-25T00:41:38;101148.00;;;19.26;100.00
36980;BME280;22891;50.562;7.272;2022-08-25T00:44:07;101152.00;;;19.13;100.00
36980;BME280;22891;50.562;7.272;2022-08-25T00:46:39;101159.00;;;19.21;100.00
36980;BME280;22891;50.562;7.272;2022-08-25T00:49:19;101157.00;;;19.07;100.00
36980;BME280;22891;50.562;7.272;2022-08-25T00:51:51;101157.00;;;19.19;100.00
36980;BME280;22891;50.562;7.272;2022-08-25T00:55:51;101161.00;;;19.24;100.00
36980;BME280;22891;50.562;7.272;2022-08-25T00:58:21;101154.00;;;19.01;100.00
36980;BME280;22891;50.562;7.272;2022-08-25T01:00:51;101156.00;;;19.03;100.00
36980;BME280;22891;50.562;7.272;2022-08-25T01:03:19;101160.00;;;19.10;100.00
36980;BME280;22891;50.562;7.272;2022-08-25T01:05:46;101159.00;;;18.95;100.00
36980;BME280;22891;50.562;7.272;2022-08-25T01:08:13;101156.00;;;18.77;100.00
36980;BME280;22891;50.562;7.272;2022-08-25T01:10:41;101152.00;;;18.68;100.00
36980;BME280;22891;50.562;7.272;2022-08-25T01:13:21;101153.00;;;18.78;100.00
36980;BME280;22891;50.562;7.272;2022-08-25T01:15:53;101153.00;;;18.78;100.00
36980;BME280;22891;50.562;7.272;2022-08-25T01:18:19;101149.00;;;18.81;100.00
36980;BME280;22891;50.562;7.272;2022-08-25T01:21:00;101155.00;;;18.80;100.00
36980;BME280;22891;50.562;7.272;2022-08-25T01:23:26;101157.00;;;18.70;100.00
36980;BME280;22891;50.562;7.272;2022-08-25T01:26:04;101159.00;;;18.59;100.00
36980;BME280;22891;50.562;7.272;2022-08-25T01:28:32;101160.00;;;18.66;100.00
36980;BME280;22891;50.562;7.272;2022-08-25T01:30:58;101159.00;;;18.48;100.00
36980;BME280;22891;50.562;7.272;2022-08-25T01:33:25;101160.00;;;18.38;100.00
36980;BME280;22891;50.562;7.272;2022-08-25T01:35:51;101158.00;;;18.43;100.00
36980;BME280;22891;50.562;7.272;2022-08-25T01:38:17;101158.00;;;18.51;100.00
36980;BME280;22891;50.562;7.272;2022-08-25T01:40:46;101162.00;;;18.57;100.00
36980;BME280;22891;50.562;7.272;2022-08-25T01:43:24;101163.00;;;18.47;100.00
36980;BME280;22891;50.562;7.272;2022-08-25T01:45:51;101162.00;;;18.32;100.00
36980;BME280;22891;50.562;7.272;2022-08-25T01:48:18;101163.00;;;18.39;100.00
36980;BME280;22891;50.562;7.272;2022-08-25T01:50:44;101152.00;;;18.42;100.00
36980;BME280;22891;50.562;7.272;2022-08-25T01:53:26;101155.00;;;18.44;100.00
36980;BME280;22891;50.562;7.272;2022-08-25T01:55:52;101159.00;;;18.37;100.00
36980;BME280;22891;50.562;7.272;2022-08-25T01:58:31;101161.00;;;18.35;100.00
36980;BME280;22891;50.562;7.272;2022-08-25T02:01:03;101149.00;;;18.21;100.00
36980;BME280;22891;50.562;7.272;2022-08-25T02:03:29;101154.00;;;18.32;100.00
36980;BME280;22891;50.562;7.272;2022-08-25T02:05:56;101155.00;;;18.31;100.00
36980;BME280;22891;50.562;7.272;2022-08-25T02:08:24;101153.00;;;18.33;100.00
36980;BME280;22891;50.562;7.272;2022-08-25T02:10:51;101155.00;;;18.15;100.00
36980;BME280;22891;50.562;7.272;2022-08-25T02:13:19;101152.00;;;18.12;100.00
36980;BME280;22891;50.562;7.272;2022-08-25T02:15:48;101153.00;;;18.04;100.00
36980;BME280;22891;50.562;7.272;2022-08-25T02:18:15;101160.00;;;18.02;100.00
36980;BME280;22891;50.562;7.272;2022-08-25T02:20:42;101158.00;;;18.03;100.00
36980;BME280;22891;50.562;7.272;2022-08-25T02:23:08;101150.00;;;17.90;100.00
36980;BME280;22891;50.562;7.272;2022-08-25T02:25:37;101157.00;;;17.97;100.00
36980;BME280;22891;50.562;7.272;2022-08-25T02:28:03;101150.00;;;17.96;100.00
36980;BME280;22891;50.562;7.272;2022-08-25T02:30:29;101146.00;;;17.93;100.00
36980;BME280;22891;50.562;7.272;2022-08-25T02:32:55;101157.00;;;18.03;100.00
36980;BME280;22891;50.562;7.272;2022-08-25T02:35:22;101151.00;;;17.78;100.00
36980;BME280;22891;50.562;7.272;2022-08-25T02:37:52;101149.00;;;17.67;100.00
36980;BME280;22891;50.562;7.272;2022-08-25T02:40:20;101154.00;;;17.63;100.00
36980;BME280;22891;50.562;7.272;2022-08-25T02:42:48;101141.00;;;17.74;100.00
36980;BME280;22891;50.562;7.272;2022-08-25T02:45:14;101146.00;;;17.81;100.00
36980;BME280;22891;50.562;7.272;2022-08-25T02:47:40;101140.00;;;17.77;100.00
36980;BME280;22891;50.562;7.272;2022-08-25T02:50:07;101148.00;;;17.59;100.00
36980;BME280;22891;50.562;7.272;2022-08-25T02:52:33;101145.00;;;17.66;100.00
36980;BME280;22891;50.562;7.272;2022-08-25T02:55:01;101144.00;;;17.73;100.00
36980;BME280;22891;50.562;7.272;2022-08-25T02:57:29;101141.00;;;17.63;100.00
36980;BME280;22891;50.562;7.272;2022-08-25T02:59:55;101132.00;;;17.56;100.00
36980;BME280;22891;50.562;7.272;2022-08-25T03:02:22;101134.00;;;17.48;100.00
36980;BME280;22891;50.562;7.272;2022-08-25T03:04:49;101135.00;;;17.55;100.00
36980;BME280;22891;50.562;7.272;2022-08-25T03:07:17;101104.00;;;17.43;100.00
36980;BME280;22891;50.562;7.272;2022-08-25T03:09:43;101130.00;;;17.47;100.00
36980;BME280;22891;50.562;7.272;2022-08-25T03:12:09;101133.00;;;17.49;100.00
36980;BME280;22891;50.562;7.272;2022-08-25T03:14:37;101129.00;;;17.38;100.00
36980;BME280;22891;50.562;7.272;2022-08-25T03:17:04;101116.00;;;17.24;100.00
36980;BME280;22891;50.562;7.272;2022-08-25T03:19:30;101121.00;;;17.19;100.00
36980;BME280;22891;50.562;7.272;2022-08-25T03:21:56;101120.00;;;17.15;100.00
36980;BME280;22891;50.562;7.272;2022-08-25T03:24:23;101124.00;;;17.32;100.00
36980;BME280;22891;50.562;7.272;2022-08-25T03:26:49;101113.00;;;17.29;100.00
36980;BME280;22891;50.562;7.272;2022-08-25T03:29:30;101114.00;;;17.32;100.00
36980;BME280;22891;50.562;7.272;2022-08-25T03:31:58;101118.00;;;17.41;100.00
36980;BME280;22891;50.562;7.272;2022-08-25T03:34:25;101115.00;;;17.39;100.00
36980;BME280;22891;50.562;7.272;2022-08-25T03:36:53;101108.00;;;17.40;100.00
36980;BME280;22891;50.562;7.272;2022-08-25T03:39:21;101109.00;;;17.34;100.00
36980;BME280;22891;50.562;7.272;2022-08-25T03:41:47;101102.00;;;17.36;100.00
36980;BME280;22891;50.562;7.272;2022-08-25T03:44:15;101107.00;;;17.23;100.00
36980;BME280;22891;50.562;7.272;2022-08-25T03:46:43;101104.00;;;17.30;100.00
36980;BME280;22891;50.562;7.272;2022-08-25T03:49:13;101099.00;;;17.20;100.00
36980;BME280;22891;50.562;7.272;2022-08-25T03:51:47;101097.00;;;17.13;100.00
36980;BME280;22891;50.562;7.272;2022-08-25T03:54:16;101088.00;;;16.94;100.00
36980;BME280;22891;50.562;7.272;2022-08-25T03:56:43;101079.00;;;16.98;100.00
36980;BME280;22891;50.562;7.272;2022-08-25T03:59:10;101083.00;;;17.04;100.00
36980;BME280;22891;50.562;7.272;2022-08-25T04:01:37;101079.00;;;17.08;100.00
36980;BME280;22891;50.562;7.272;2022-08-25T04:04:04;101078.00;;;17.09;100.00
36980;BME280;22891;50.562;7.272;2022-08-25T04:06:30;101079.00;;;16.97;100.00
36980;BME280;22891;50.562;7.272;2022-08-25T04:08:56;101079.00;;;17.03;100.00
36980;BME280;22891;50.562;7.272;2022-08-25T04:11:24;101081.00;;;16.93;100.00
36980;BME280;22891;50.562;7.272;2022-08-25T04:13:51;101076.00;;;16.84;100.00
36980;BME280;22891;50.562;7.272;2022-08-25T04:16:21;101081.00;;;16.87;100.00
36980;BME280;22891;50.562;7.272;2022-08-25T04:18:50;101075.00;;;16.80;100.00
36980;BME280;22891;50.562;7.272;2022-08-25T04:21:19;101084.00;;;16.84;100.00
36980;BME280;22891;50.562;7.272;2022-08-25T04:23:46;101088.00;;;16.91;100.00
36980;BME280;22891;50.562;7.272;2022-08-25T04:26:30;101085.00;;;17.02;100.00
36980;BME280;22891;50.562;7.272;2022-08-25T04:28:58;101089.00;;;17.04;100.00
36980;BME280;22891;50.562;7.272;2022-08-25T04:31:25;101085.00;;;16.83;100.00
36980;BME280;22891;50.562;7.272;2022-08-25T04:33:51;101082.00;;;16.91;100.00
36980;BME280;22891;50.562;7.272;2022-08-25T04:36:18;101066.00;;;16.84;100.00
36980;BME280;22891;50.562;7.272;2022-08-25T04:38:46;101078.00;;;16.88;100.00
36980;BME280;22891;50.562;7.272;2022-08-25T04:41:14;101067.00;;;16.85;100.00
36980;BME280;22891;50.562;7.272;2022-08-25T04:43:41;101066.00;;;16.78;100.00
36980;BME280;22891;50.562;7.272;2022-08-25T04:46:12;101063.00;;;16.64;100.00
36980;BME280;22891;50.562;7.272;2022-08-25T04:48:39;101070.00;;;16.67;100.00
36980;BME280;22891;50.562;7.272;2022-08-25T04:51:08;101077.00;;;16.78;100.00
36980;BME280;22891;50.562;7.272;2022-08-25T04:53:35;101086.00;;;16.93;100.00
36980;BME280;22891;50.562;7.272;2022-08-25T04:56:05;101087.00;;;17.07;100.00
36980;BME280;22891;50.562;7.272;2022-08-25T04:58:32;101075.00;;;17.02;100.00
36980;BME280;22891;50.562;7.272;2022-08-25T05:01:07;101076.00;;;17.00;100.00
36980;BME280;22891;50.562;7.272;2022-08-25T05:03:34;101076.00;;;17.00;100.00
36980;BME280;22891;50.562;7.272;2022-08-25T05:06:01;101069.00;;;16.95;100.00
36980;BME280;22891;50.562;7.272;2022-08-25T05:08:27;101077.00;;;17.07;100.00
36980;BME280;22891;50.562;7.272;2022-08-25T05:10:53;101069.00;;;16.96;100.00
36980;BME280;22891;50.562;7.272;2022-08-25T05:13:23;101061.00;;;16.92;100.00
36980;BME280;22891;50.562;7.272;2022-08-25T05:15:54;101066.00;;;16.91;100.00
36980;BME280;22891;50.562;7.272;2022-08-25T05:18:22;101073.00;;;16.96;100.00
36980;BME280;22891;50.562;7.272;2022-08-25T05:20:51;101060.00;;;17.00;100.00
36980;BME280;22891;50.562;7.272;2022-08-25T05:23:20;101070.00;;;17.18;100.00
36980;BME280;22891;50.562;7.272;2022-08-25T05:25:47;101064.00;;;17.31;100.00
36980;BME280;22891;50.562;7.272;2022-08-25T05:28:14;101058.00;;;17.35;100.00
36980;BME280;22891;50.562;7.272;2022-08-25T05:30:41;101060.00;;;17.51;100.00
36980;BME280;22891;50.562;7.272;2022-08-25T05:33:08;101060.00;;;17.72;100.00
36980;BME280;22891;50.562;7.272;2022-08-25T05:35:34;101075.00;;;17.83;100.00
36980;BME280;22891;50.562;7.272;2022-08-25T05:38:02;101075.00;;;17.80;100.00
36980;BME280;22891;50.562;7.272;2022-08-25T05:40:29;101081.00;;;17.96;100.00
36980;BME280;22891;50.562;7.272;2022-08-25T05:42:55;101078.00;;;18.14;100.00
36980;BME280;22891;50.562;7.272;2022-08-25T05:45:22;101085.00;;;18.18;100.00
36980;BME280;22891;50.562;7.272;2022-08-25T05:47:48;101084.00;;;18.27;100.00
36980;BME280;22891;50.562;7.272;2022-08-25T05:50:14;101089.00;;;18.33;100.00
36980;BME280;22891;50.562;7.272;2022-08-25T05:52:40;101081.00;;;18.47;100.00
36980;BME280;22891;50.562;7.272;2022-08-25T05:55:07;101073.00;;;18.50;100.00
36980;BME280;22891;50.562;7.272;2022-08-25T05:57:34;101072.00;;;18.52;100.00
36980;BME280;22891;50.562;7.272;2022-08-25T06:00:00;101062.00;;;18.52;100.00
36980;BME280;22891;50.562;7.272;2022-08-25T06:02:26;101061.00;;;18.55;100.00
36980;BME280;22891;50.562;7.272;2022-08-25T06:05:18;101060.00;;;18.67;100.00
36980;BME280;22891;50.562;7.272;2022-08-25T06:07:46;101061.00;;;18.77;100.00
36980;BME280;22891;50.562;7.272;2022-08-25T06:10:13;101055.00;;;19.06;100.00
36980;BME280;22891;50.562;7.272;2022-08-25T06:12:41;101067.00;;;20.12;100.00
36980;BME280;22891;50.562;7.272;2022-08-25T06:15:16;101077.00;;;20.03;100.00
36980;BME280;22891;50.562;7.272;2022-08-25T06:17:43;101090.00;;;20.70;100.00
36980;BME280;22891;50.562;7.272;2022-08-25T06:20:13;101099.00;;;21.19;100.00
36980;BME280;22891;50.562;7.272;2022-08-25T06:22:39;101094.00;;;21.14;100.00
36980;BME280;22891;50.562;7.272;2022-08-25T06:25:06;101100.00;;;21.60;100.00
36980;BME280;22891;50.562;7.272;2022-08-25T06:27:34;101110.00;;;21.71;100.00
36980;BME280;22891;50.562;7.272;2022-08-25T06:30:01;101095.00;;;21.99;100.00
36980;BME280;22891;50.562;7.272;2022-08-25T06:32:33;101101.00;;;21.83;100.00
36980;BME280;22891;50.562;7.272;2022-08-25T06:35:05;101102.00;;;21.81;100.00
36980;BME280;22891;50.562;7.272;2022-08-25T06:37:31;101105.00;;;22.20;100.00
36980;BME280;22891;50.562;7.272;2022-08-25T06:39:57;101083.00;;;22.15;100.00
36980;BME280;22891;50.562;7.272;2022-08-25T06:42:22;101106.00;;;22.40;100.00
36980;BME280;22891;50.562;7.272;2022-08-25T06:44:49;101113.00;;;22.75;100.00
36980;BME280;22891;50.562;7.272;2022-08-25T06:47:15;101106.00;;;22.62;100.00
36980;BME280;22891;50.562;7.272;2022-08-25T06:49:42;101108.00;;;22.77;100.00
36980;BME280;22891;50.562;7.272;2022-08-25T06:52:10;101101.00;;;22.81;100.00
36980;BME280;22891;50.562;7.272;2022-08-25T06:54:36;101108.00;;;22.82;100.00
36980;BME280;22891;50.562;7.272;2022-08-25T06:57:03;101113.00;;;23.26;100.00
36980;BME280;22891;50.562;7.272;2022-08-25T06:59:32;101118.00;;;23.44;100.00
36980;BME280;22891;50.562;7.272;2022-08-25T07:01:58;101116.00;;;23.61;100.00
36980;BME280;22891;50.562;7.272;2022-08-25T07:04:24;101116.00;;;23.62;100.00
36980;BME280;22891;50.562;7.272;2022-08-25T07:06:50;101113.00;;;23.81;100.00
36980;BME280;22891;50.562;7.272;2022-08-25T07:09:16;101111.00;;;23.77;100.00
36980;BME280;22891;50.562;7.272;2022-08-25T07:11:42;101114.00;;;24.34;100.00
36980;BME280;22891;50.562;7.272;2022-08-25T07:14:11;101111.00;;;24.52;100.00
36980;BME280;22891;50.562;7.272;2022-08-25T07:16:39;101116.00;;;24.98;100.00
36980;BME280;22891;50.562;7.272;2022-08-25T07:19:06;101112.00;;;25.08;100.00
36980;BME280;22891;50.562;7.272;2022-08-25T07:21:35;101113.00;;;25.54;100.00
36980;BME280;22891;50.562;7.272;2022-08-25T07:24:05;101115.00;;;25.52;100.00
36980;BME280;22891;50.562;7.272;2022-08-25T07:26:32;101120.00;;;25.92;100.00
36980;BME280;22891;50.562;7.272;2022-08-25T07:29:22;101108.00;;;26.26;100.00
36980;BME280;22891;50.562;7.272;2022-08-25T07:31:48;101102.00;;;26.24;100.00
36980;BME280;22891;50.562;7.272;2022-08-25T07:34:14;101106.00;;;26.59;100.00
36980;BME280;22891;50.562;7.272;2022-08-25T07:36:58;101103.00;;;26.64;100.00
36980;BME280;22891;50.562;7.272;2022-08-25T07:39:25;101109.00;;;26.82;100.00
36980;BME280;22891;50.562;7.272;2022-08-25T07:41:52;101107.00;;;26.85;100.00
36980;BME280;22891;50.562;7.272;2022-08-25T07:44:20;101104.00;;;26.98;100.00
36980;BME280;22891;50.562;7.272;2022-08-25T07:46:46;101097.00;;;27.34;100.00
36980;BME280;22891;50.562;7.272;2022-08-25T07:49:11;101099.00;;;27.88;100.00
36980;BME280;22891;50.562;7.272;2022-08-25T07:51:37;101096.00;;;27.98;100.00
36980;BME280;22891;50.562;7.272;2022-08-25T07:54:04;101096.00;;;27.98;100.00
36980;BME280;22891;50.562;7.272;2022-08-25T07:56:30;101103.00;;;27.94;100.00
36980;BME280;22891;50.562;7.272;2022-08-25T07:58:56;101102.00;;;28.71;100.00
36980;BME280;22891;50.562;7.272;2022-08-25T08:01:23;101099.00;;;29.31;100.00
36980;BME280;22891;50.562;7.272;2022-08-25T08:03:50;101099.00;;;29.27;100.00
36980;BME280;22891;50.562;7.272;2022-08-25T08:06:19;101101.00;;;29.50;100.00
36980;BME280;22891;50.562;7.272;2022-08-25T08:08:47;101101.00;;;30.02;100.00
36980;BME280;22891;50.562;7.272;2022-08-25T08:11:25;101097.00;;;29.66;100.00
36980;BME280;22891;50.562;7.272;2022-08-25T08:13:52;101100.00;;;30.01;100.00
36980;BME280;22891;50.562;7.272;2022-08-25T08:16:20;101090.00;;;29.87;100.00
36980;BME280;22891;50.562;7.272;2022-08-25T08:18:46;101096.00;;;29.99;100.00
36980;BME280;22891;50.562;7.272;2022-08-25T08:21:15;101086.00;;;30.39;100.00
36980;BME280;22891;50.562;7.272;2022-08-25T08:23:41;101079.00;;;30.91;100.00
36980;BME280;22891;50.562;7.272;2022-08-25T08:26:07;101078.00;;;30.79;100.00
36980;BME280;22891;50.562;7.272;2022-08-25T08:28:32;101079.00;;;30.91;100.00
36980;BME280;22891;50.562;7.272;2022-08-25T08:30:58;101075.00;;;30.62;100.00
36980;BME280;22891;50.562;7.272;2022-08-25T08:33:24;101075.00;;;31.40;100.00
36980;BME280;22891;50.562;7.272;2022-08-25T08:36:02;101061.00;;;31.67;100.00
36980;BME280;22891;50.562;7.272;2022-08-25T08:38:29;101059.00;;;31.39;100.00
36980;BME280;22891;50.562;7.272;2022-08-25T08:41:27;101055.00;;;31.60;100.00
36980;BME280;22891;50.562;7.272;2022-08-25T08:46:05;101062.00;;;31.58;100.00
36980;BME280;22891;50.562;7.272;2022-08-25T08:49:26;101046.00;;;31.29;100.00
36980;BME280;22891;50.562;7.272;2022-08-25T08:51:58;101052.00;;;31.38;100.00
36980;BME280;22891;50.562;7.272;2022-08-25T08:54:29;101042.00;;;31.62;100.00
36980;BME280;22891;50.562;7.272;2022-08-25T08:57:13;101034.00;;;31.63;100.00
36980;BME280;22891;50.562;7.272;2022-08-25T08:59:53;101027.00;;;31.29;100.00
36980;BME280;22891;50.562;7.272;2022-08-25T09:02:32;101034.00;;;31.84;100.00
36980;BME280;22891;50.562;7.272;2022-08-25T09:05:01;101036.00;;;32.92;100.00
36980;BME280;22891;50.562;7.272;2022-08-25T09:07:38;101038.00;;;32.28;100.00
36980;BME280;22891;50.562;7.272;2022-08-25T09:10:06;101021.00;;;32.46;100.00
36980;BME280;22891;50.562;7.272;2022-08-25T09:12:43;101022.00;;;33.00;100.00
36980;BME280;22891;50.562;7.272;2022-08-25T09:18:12;101025.00;;;33.02;100.00
36980;BME280;22891;50.562;7.272;2022-08-25T09:21:42;101014.00;;;33.64;100.00
36980;BME280;22891;50.562;7.272;2022-08-25T09:24:31;101018.00;;;33.23;100.00
36980;BME280;22891;50.562;7.272;2022-08-25T09:29:58;101008.00;;;33.57;100.00
36980;BME280;22891;50.562;7.272;2022-08-25T09:33:13;101001.00;;;33.54;100.00
36980;BME280;22891;50.562;7.272;2022-08-25T09:35:41;101000.00;;;34.14;100.00
36980;BME280;22891;50.562;7.272;2022-08-25T09:38:09;100986.00;;;34.13;100.00
36980;BME280;22891;50.562;7.272;2022-08-25T09:40:40;100991.00;;;34.40;100.00
36980;BME280;22891;50.562;7.272;2022-08-25T09:46:23;100986.00;;;33.75;100.00
36980;BME280;22891;50.562;7.272;2022-08-25T09:55:33;100977.00;;;34.60;100.00
36980;BME280;22891;50.562;7.272;2022-08-25T09:57:59;100967.00;;;35.21;100.00
36980;BME280;22891;50.562;7.272;2022-08-25T10:00:29;100964.00;;;34.84;100.00
36980;BME280;22891;50.562;7.272;2022-08-25T10:05:33;100963.00;;;34.85;100.00
36980;BME280;22891;50.562;7.272;2022-08-25T10:08:09;100950.00;;;35.04;100.00
36980;BME280;22891;50.562;7.272;2022-08-25T10:10:54;100954.00;;;34.97;100.00
36980;BME280;22891;50.562;7.272;2022-08-25T10:13:34;100949.00;;;35.39;100.00
36980;BME280;22891;50.562;7.272;2022-08-25T10:16:26;100951.00;;;35.38;100.00
36980;BME280;22891;50.562;7.272;2022-08-25T10:19:01;100940.00;;;35.20;100.00
36980;BME280;22891;50.562;7.272;2022-08-25T10:21:27;100933.00;;;35.91;100.00
36980;BME280;22891;50.562;7.272;2022-08-25T10:23:53;100942.00;;;35.77;100.00
36980;BME280;22891;50.562;7.272;2022-08-25T10:37:50;100939.00;;;35.65;100.00
36980;BME280;22891;50.562;7.272;2022-08-25T10:40:35;100923.00;;;36.29;100.00
36980;BME280;22891;50.562;7.272;2022-08-25T10:43:06;100919.00;;;37.08;100.00
36980;BME280;22891;50.562;7.272;2022-08-25T10:45:53;100911.00;;;36.52;100.00
36980;BME280;22891;50.562;7.272;2022-08-25T10:48:51;100905.00;;;36.04;100.00
36980;BME280;22891;50.562;7.272;2022-08-25T10:51:37;100907.00;;;36.46;100.00
36980;BME280;22891;50.562;7.272;2022-08-25T10:55:12;100900.00;;;37.03;100.00
36980;BME280;22891;50.562;7.272;2022-08-25T11:00:38;100889.00;;;36.64;100.00
36980;BME280;22891;50.562;7.272;2022-08-25T11:03:58;100883.00;;;36.50;100.00
36980;BME280;22891;50.562;7.272;2022-08-25T11:07:28;100885.00;;;36.87;100.00
36980;BME280;22891;50.562;7.272;2022-08-25T11:10:06;100879.00;;;37.58;100.00
36980;BME280;22891;50.562;7.272;2022-08-25T11:12:52;100878.00;;;38.25;100.00
36980;BME280;22891;50.562;7.272;2022-08-25T11:15:37;100881.00;;;38.03;100.00
36980;BME280;22891;50.562;7.272;2022-08-25T11:18:10;100887.00;;;37.80;100.00
36980;BME280;22891;50.562;7.272;2022-08-25T11:21:18;100879.00;;;36.78;100.00
36980;BME280;22891;50.562;7.272;2022-08-25T11:29:30;100878.00;;;37.67;100.00
36980;BME280;22891;50.562;7.272;2022-08-25T11:32:00;100869.00;;;38.43;100.00
36980;BME280;22891;50.562;7.272;2022-08-25T11:34:31;100869.00;;;37.76;100.00
36980;BME280;22891;50.562;7.272;2022-08-25T11:37:18;100871.00;;;38.11;100.00
36980;BME280;22891;50.562;7.272;2022-08-25T11:43:30;100859.00;;;38.17;100.00
36980;BME280;22891;50.562;7.272;2022-08-25T11:50:36;100849.00;;;37.75;100.00
36980;BME280;22891;50.562;7.272;2022-08-25T11:53:32;100842.00;;;36.32;100.00
36980;BME280;22891;50.562;7.272;2022-08-25T11:56:05;100850.00;;;36.58;100.00
36980;BME280;22891;50.562;7.272;2022-08-25T11:58:46;100847.00;;;36.43;100.00
36980;BME280;22891;50.562;7.272;2022-08-25T12:01:59;100846.00;;;36.73;100.00
36980;BME280;22891;50.562;7.272;2022-08-25T12:04:40;100838.00;;;37.01;100.00
36980;BME280;22891;50.562;7.272;2022-08-25T12:07:19;100834.00;;;37.47;100.00
36980;BME280;22891;50.562;7.272;2022-08-25T12:10:21;100825.00;;;38.02;100.00
36980;BME280;22891;50.562;7.272;2022-08-25T12:13:22;100821.00;;;37.52;100.00
36980;BME280;22891;50.562;7.272;2022-08-25T12:15:58;100819.00;;;37.43;100.00
36980;BME280;22891;50.562;7.272;2022-08-25T12:21:42;100813.00;;;37.47;100.00
36980;BME280;22891;50.562;7.272;2022-08-25T12:24:11;100819.00;;;37.00;88.98
36980;BME280;22891;50.562;7.272;2022-08-25T12:28:21;100804.00;;;36.91;96.02
36980;BME280;22891;50.562;7.272;2022-08-25T12:30:58;100798.00;;;37.21;92.36
36980;BME280;22891;50.562;7.272;2022-08-25T12:33:57;100796.00;;;37.10;96.35
36980;BME280;22891;50.562;7.272;2022-08-25T12:36:30;100798.00;;;36.60;98.67
36980;BME280;22891;50.562;7.272;2022-08-25T12:39:19;100802.00;;;36.52;95.62
36980;BME280;22891;50.562;7.272;2022-08-25T12:41:59;100800.00;;;36.70;99.53
36980;BME280;22891;50.562;7.272;2022-08-25T12:48:58;100794.00;;;36.76;92.54
36980;BME280;22891;50.562;7.272;2022-08-25T12:51:53;100797.00;;;37.17;87.29
36980;BME280;22891;50.562;7.272;2022-08-25T12:55:07;100791.00;;;37.18;78.23
36980;BME280;22891;50.562;7.272;2022-08-25T12:57:45;100788.00;;;36.37;92.74
36980;BME280;22891;50.562;7.272;2022-08-25T13:00:36;100786.00;;;35.68;100.00
36980;BME280;22891;50.562;7.272;2022-08-25T13:10:17;100790.00;;;35.53;99.94
36980;BME280;22891;50.562;7.272;2022-08-25T13:13:10;100786.00;;;36.19;87.16
36980;BME280;22891;50.562;7.272;2022-08-25T13:15:56;100777.00;;;35.56;86.78
36980;BME280;22891;50.562;7.272;2022-08-25T13:18:28;100771.00;;;36.42;87.12
36980;BME280;22891;50.562;7.272;2022-08-25T13:21:16;100768.00;;;36.15;86.85
36980;BME280;22891;50.562;7.272;2022-08-25T13:23:45;100762.00;;;35.73;85.36
36980;BME280;22891;50.562;7.272;2022-08-25T13:26:14;100755.00;;;36.09;80.68
36980;BME280;22891;50.562;7.272;2022-08-25T13:28:41;100750.00;;;35.73;85.80
36980;BME280;22891;50.562;7.272;2022-08-25T13:31:14;100749.00;;;36.11;81.66
36980;BME280;22891;50.562;7.272;2022-08-25T13:33:50;100754.00;;;35.85;75.78
36980;BME280;22891;50.562;7.272;2022-08-25T13:36:16;100752.00;;;36.03;79.91
36980;BME280;22891;50.562;7.272;2022-08-25T13:39:11;100744.00;;;36.39;77.52
36980;BME280;22891;50.562;7.272;2022-08-25T13:41:44;100737.00;;;35.65;77.69
36980;BME280;22891;50.562;7.272;2022-08-25T13:44:12;100735.00;;;35.82;85.48
36980;BME280;22891;50.562;7.272;2022-08-25T13:46:38;100730.00;;;35.94;89.62
36980;BME280;22891;50.562;7.272;2022-08-25T13:49:05;100726.00;;;36.10;79.59
36980;BME280;22891;50.562;7.272;2022-08-25T13:51:33;100736.00;;;35.81;75.21
36980;BME280;22891;50.562;7.272;2022-08-25T13:54:06;100734.00;;;35.73;78.82
36980;BME280;22891;50.562;7.272;2022-08-25T13:56:38;100730.00;;;35.84;75.59
36980;BME280;22891;50.562;7.272;2022-08-25T13:59:17;100733.00;;;36.00;79.13
36980;BME280;22891;50.562;7.272;2022-08-25T14:01:46;100717.00;;;35.97;73.81
36980;BME280;22891;50.562;7.272;2022-08-25T14:06:24;100713.00;;;35.48;80.85
36980;BME280;22891;50.562;7.272;2022-08-25T14:09:16;100722.00;;;34.64;84.95
36980;BME280;22891;50.562;7.272;2022-08-25T14:11:46;100712.00;;;34.75;82.94
36980;BME280;22891;50.562;7.272;2022-08-25T14:14:45;100720.00;;;34.60;85.01
36980;BME280;22891;50.562;7.272;2022-08-25T14:17:22;100717.00;;;34.95;82.28